Time;durP1;ratioP1;P1;durP2;ratioP2;P2;SDS_P1;SDS_P2;PMS_P1;PMS_P2;Temp;Humidity;BMP_temperature;BMP_pressure;BME280_temperature;BME280_humidity;BME280_pressure;Samples;Min_cycle;Max_cycle;Signal;HPM_P1;HPM_P2
2024/04/16 00:06:55;;;;;;;21.90;15.00;;;;;;;6.81;95.86;97624.45;449232;1236;138946;-55
2024/04/16 00:16:59;;;;;;;5.20;3.40;;;;;;;7.20;98.75;97677.19;448152;1237;139212;-54
2024/04/16 00:27:02;;;;;;;1.60;1.40;;;;;;;7.23;94.72;97643.89;448934;1237;138746;-54
2024/04/16 00:37:06;;;;;;;3.40;2.40;;;;;;;7.10;92.77;97637.65;448581;1238;139037;-55
2024/04/16 00:47:10;;;;;;;3.60;1.90;;;;;;;6.98;92.41;97623.63;449370;1235;138862;-62
2024/04/16 00:57:14;;;;;;;3.10;2.10;;;;;;;6.87;92.28;97595.27;449848;1237;141615;-63
2024/04/16 01:07:19;;;;;;;3.20;1.80;;;;;;;6.79;91.80;97580.05;449291;1237;139494;-55
2024/04/16 01:17:23;;;;;;;2.20;1.90;;;;;;;6.48;91.10;97571.05;449600;1237;139592;-55
2024/04/16 01:27:26;;;;;;;1.50;1.40;;;;;;;6.09;91.06;97563.52;449036;1242;289233;-53
2024/04/16 01:37:29;;;;;;;1.70;1.40;;;;;;;5.75;91.60;97571.45;449079;1237;139136;-55
2024/04/16 01:47:33;;;;;;;3.70;3.30;;;;;;;5.53;92.83;97577.81;448550;1237;139044;-63
2024/04/16 01:57:36;;;;;;;6.90;6.10;;;;;;;5.53;95.60;97589.94;449049;1237;138582;-63
2024/04/16 02:07:39;;;;;;;10.70;8.70;;;;;;;5.70;98.82;97582.38;448348;1237;138873;-54
2024/04/16 02:17:43;;;;;;;11.10;9.80;;;;;;;6.01;100.00;97591.36;448640;1235;139219;-55
2024/04/16 02:27:46;;;;;;;11.70;8.40;;;;;;;6.33;100.00;97592.73;448930;1235;138933;-55
2024/04/16 02:37:50;;;;;;;14.80;9.40;;;;;;;6.58;100.00;97584.86;448269;1234;138855;-54
2024/04/16 02:47:54;;;;;;;12.60;8.90;;;;;;;6.71;100.00;97565.20;448897;1237;138904;-53
2024/04/16 02:57:57;;;;;;;9.50;7.60;;;;;;;6.77;100.00;97566.98;449106;1236;138924;-53
2024/04/16 03:08:01;;;;;;;8.30;6.40;;;;;;;6.80;100.00;97548.89;449446;1237;139412;-55
2024/04/16 03:18:05;;;;;;;4.90;4.40;;;;;;;6.82;100.00;97586.97;449174;1237;139101;-55
2024/04/16 03:28:09;;;;;;;4.80;4.20;;;;;;;6.92;100.00;97597.33;450098;1233;138740;-55
2024/04/16 03:38:14;;;;;;;1.00;0.90;;;;;;;6.97;100.00;97621.57;449004;1235;139491;-55
2024/04/16 03:48:17;;;;;;;1.20;1.10;;;;;;;6.76;99.02;97666.75;448208;1237;139055;-54
2024/04/16 03:58:21;;;;;;;2.80;1.30;;;;;;;6.38;96.69;97712.80;448570;1237;139409;-53
2024/04/16 04:08:24;;;;;;;2.70;1.50;;;;;;;6.03;94.22;97738.36;449047;1235;139107;-55
2024/04/16 04:18:29;;;;;;;2.70;2.20;;;;;;;5.76;92.61;97760.45;449613;1236;138957;-55
2024/04/16 04:28:32;;;;;;;4.10;1.90;;;;;;;5.55;91.28;97782.58;449529;1234;138606;-54
2024/04/16 04:38:38;;;;;;;2.20;2.10;;;;;;;5.41;89.62;97797.00;449509;1233;138966;-54
2024/04/16 04:48:41;;;;;;;2.90;1.00;;;;;;;5.36;88.29;97821.09;449977;1236;139939;-55
2024/04/16 04:58:45;;;;;;;4.10;1.80;;;;;;;5.60;87.40;97832.92;449214;1234;138598;-61
2024/04/16 05:08:48;;;;;;;2.70;1.10;;;;;;;6.41;85.86;97849.50;449433;1233;138667;-60
2024/04/16 05:18:51;;;;;;;4.40;1.50;;;;;;;7.04;83.17;97870.38;448427;1236;138856;-60
2024/04/16 05:28:55;;;;;;;2.70;2.00;;;;;;;7.21;80.49;97887.33;448617;1237;138992;-61
2024/04/16 05:38:58;;;;;;;1.50;1.20;;;;;;;7.38;79.52;97889.50;448588;1235;139297;-59
2024/04/16 05:49:01;;;;;;;2.20;1.40;;;;;;;7.42;77.63;97894.78;448589;1234;139306;-60
2024/04/16 05:59:05;;;;;;;1.30;0.90;;;;;;;7.39;76.26;97888.88;449597;1233;138692;-61
2024/04/16 06:09:08;;;;;;;3.30;1.30;;;;;;;7.34;75.43;97892.29;449933;1237;138469;-62
2024/04/16 06:19:11;;;;;;;2.30;1.20;;;;;;;8.18;75.39;97894.33;448716;1237;139459;-60
2024/04/16 06:29:15;;;;;;;4.30;1.20;;;;;;;11.38;72.84;97892.19;462842;1233;138831;-58
2024/04/16 06:39:18;;;;;;;3.80;1.40;;;;;;;14.22;71.29;97880.21;463010;1233;139216;-58
2024/04/16 06:49:22;;;;;;;3.60;1.30;;;;;;;17.21;62.56;97863.84;455026;1233;138747;-67
2024/04/16 06:59:25;;;;;;;2.20;0.90;;;;;;;19.99;57.60;97856.78;462889;1233;138687;-62
2024/04/16 07:09:28;;;;;;;3.50;1.80;;;;;;;21.12;51.11;97864.38;454416;1233;138138;-66
2024/04/16 07:19:31;;;;;;;1.50;0.90;;;;;;;19.93;47.24;97871.73;462821;1233;139342;-61
2024/04/16 07:29:34;;;;;;;1.50;0.90;;;;;;;19.69;44.46;97885.38;462947;1233;138541;-62
2024/04/16 07:39:38;;;;;;;4.70;1.30;;;;;;;17.77;43.26;97883.17;454692;1233;138813;-59
2024/04/16 07:49:41;;;;;;;6.50;0.60;;;;;;;15.75;45.03;97878.70;462962;1233;138396;-62
2024/04/16 07:59:44;;;;;;;1.60;1.30;;;;;;;15.37;45.18;97866.02;462935;1233;138610;-60
2024/04/16 08:09:47;;;;;;;2.30;1.10;;;;;;;16.77;44.93;97849.04;462862;1233;138788;-61
2024/04/16 08:19:51;;;;;;;2.30;0.60;;;;;;;18.27;42.68;97864.88;449728;1236;138093;-62
2024/04/16 08:29:54;;;;;;;2.30;0.90;;;;;;;16.74;41.13;97890.55;448451;1237;138385;-60
2024/04/16 08:39:57;;;;;;;1.00;0.60;;;;;;;14.58;41.86;97917.34;448967;1236;138684;-65
2024/04/16 08:50:03;;;;;;;3.20;0.80;;;;;;;13.42;43.48;97908.63;460166;1233;138190;-61
2024/04/16 09:00:09;;;;;;;2.30;0.90;;;;;;;12.85;44.57;97912.10;463030;1233;138649;-65
2024/04/16 09:10:14;;;;;;;4.30;1.80;;;;;;;12.62;45.26;97929.91;462952;1233;139368;-69
2024/04/16 09:20:19;;;;;;;3.20;1.30;;;;;;;11.83;46.08;97952.56;457410;1236;138551;-62
2024/04/16 09:30:23;;;;;;;2.70;0.90;;;;;;;11.06;46.99;97960.45;462907;1233;139103;-61
2024/04/16 09:40:29;;;;;;;3.20;0.80;;;;;;;10.22;48.13;97968.04;462973;1234;139250;-63
2024/04/16 09:50:36;;;;;;;2.80;1.70;;;;;;;9.73;48.93;97967.23;463102;1233;138177;-66
2024/04/16 10:00:57;;;;;;;1.70;0.70;;;;;;;9.18;50.30;97961.02;462981;1233;138404;-64
2024/04/16 10:11:02;;;;;;;3.30;1.40;;;;;;;9.38;50.68;97948.52;462884;1233;138627;-56
2024/04/16 10:21:23;;;;;;;0.80;0.60;;;;;;;9.62;50.53;97948.94;460651;1235;138280;-59
2024/04/16 10:31:33;;;;;;;1.30;0.50;;;;;;;9.22;50.34;97941.16;450152;1237;137973;-59
2024/04/16 10:41:36;;;;;;;1.50;0.70;;;;;;;9.32;51.25;97936.60;462955;1234;138293;-57
2024/04/16 10:51:40;;;;;;;1.90;0.60;;;;;;;9.97;50.81;97945.89;463039;1237;137996;-59
2024/04/16 11:01:45;;;;;;;0.60;0.40;;;;;;;10.03;50.47;97952.94;462998;1233;138367;-61
2024/04/16 11:11:49;;;;;;;1.20;1.10;;;;;;;9.85;50.70;97961.63;462929;1234;138929;-63
2024/04/16 11:21:52;;;;;;;3.40;1.30;;;;;;;9.81;50.22;97964.25;463099;1234;138499;-60
2024/04/16 11:31:56;;;;;;;3.60;1.10;;;;;;;9.57;50.55;97963.70;462972;1236;139145;-63
2024/04/16 11:41:59;;;;;;;1.80;0.60;;;;;;;9.50;51.32;97959.75;462906;1232;138512;-60
2024/04/16 11:52:03;;;;;;;3.70;1.70;;;;;;;9.33;51.43;97960.68;463022;1233;138586;-61
2024/04/16 12:02:07;;;;;;;2.90;0.40;;;;;;;9.25;52.10;97961.31;463100;1233;138703;-60
2024/04/16 12:12:13;;;;;;;3.30;0.90;;;;;;;9.31;52.42;97960.33;463086;1233;139113;-55
2024/04/16 12:22:16;;;;;;;3.50;1.60;;;;;;;9.67;53.07;97950.14;452275;1235;138742;-59
2024/04/16 12:32:20;;;;;;;2.90;2.40;;;;;;;10.49;53.48;97947.81;449295;1236;138588;-68
2024/04/16 12:42:23;;;;;;;5.70;2.30;;;;;;;11.22;52.74;97943.36;449607;1236;138574;-59
2024/04/16 12:52:27;;;;;;;3.00;1.70;;;;;;;11.56;52.31;97933.52;454990;1236;139012;-59
2024/04/16 13:02:30;;;;;;;6.60;2.80;;;;;;;11.63;51.52;97924.54;448682;1238;139434;-59
2024/04/16 13:12:33;;;;;;;2.10;1.40;;;;;;;11.18;51.75;97920.45;449357;1234;138594;-64
2024/04/16 13:22:36;;;;;;;3.50;1.80;;;;;;;10.60;52.61;97946.00;449822;1236;138762;-61
2024/04/16 13:32:40;;;;;;;3.40;1.70;;;;;;;9.88;55.45;97927.19;459116;1236;5090907;-63
2024/04/16 13:42:44;;;;;;;6.70;2.20;;;;;;;10.11;57.61;97921.95;462973;1236;138044;-72
2024/04/16 13:52:48;;;;;;;2.30;1.10;;;;;;;10.45;57.67;97928.77;462923;1235;138658;-60
2024/04/16 14:02:51;;;;;;;3.60;1.60;;;;;;;10.73;56.46;97913.02;463062;1233;138193;-69
2024/04/16 14:12:55;;;;;;;3.40;1.40;;;;;;;10.68;56.15;97906.25;462942;1232;138651;-67
2024/04/16 14:22:59;;;;;;;5.50;1.70;;;;;;;10.67;55.92;97900.27;462921;1235;138427;-61
2024/04/16 14:33:02;;;;;;;1.80;0.80;;;;;;;10.85;55.80;97887.73;463036;1233;138708;-77
2024/04/16 14:43:05;;;;;;;2.40;1.20;;;;;;;11.08;54.76;97891.30;462881;1233;138249;-60
2024/04/16 14:53:11;;;;;;;2.40;1.20;;;;;;;11.19;54.29;97905.14;452950;1233;138866;-63
2024/04/16 15:03:14;;;;;;;3.60;0.90;;;;;;;11.25;53.35;97908.40;455468;1236;138745;-65
2024/04/16 15:13:21;;;;;;;4.90;1.20;;;;;;;11.34;52.76;97931.40;448804;1236;139356;-78
2024/04/16 15:23:24;;;;;;;3.80;1.30;;;;;;;11.15;52.32;97936.14;460972;1236;138291;-65
2024/04/16 15:33:27;;;;;;;3.40;1.20;;;;;;;10.86;52.56;97931.62;449180;1237;138308;-60
2024/04/16 15:43:31;;;;;;;0.80;0.70;;;;;;;10.21;54.83;97952.41;452185;1232;138880;-63
2024/04/16 15:53:35;;;;;;;2.00;1.00;;;;;;;9.48;57.20;97939.65;449475;1236;138455;-63
2024/04/16 16:03:43;;;;;;;3.60;1.90;;;;;;;9.25;58.57;97935.31;448752;1237;138270;-73
2024/04/16 16:13:47;;;;;;;1.40;1.00;;;;;;;9.08;58.78;97933.77;447752;1233;138251;-74
2024/04/16 16:23:50;;;;;;;2.10;1.30;;;;;;;8.74;57.99;97946.16;449682;1236;139080;-61
2024/04/16 16:33:53;;;;;;;1.60;1.20;;;;;;;8.55;57.89;97932.88;449090;1237;138182;-61
2024/04/16 16:43:57;;;;;;;2.60;1.90;;;;;;;8.39;59.38;97925.30;448819;1237;138186;-62
2024/04/16 16:54:02;;;;;;;1.90;1.40;;;;;;;8.28;60.26;97923.89;449149;1235;138013;-62
2024/04/16 17:04:06;;;;;;;2.70;1.50;;;;;;;8.08;60.55;97916.39;449130;1234;138557;-61
2024/04/16 17:14:09;;;;;;;1.50;0.90;;;;;;;7.82;60.65;97917.42;449245;1234;139217;-62
2024/04/16 17:24:14;;;;;;;2.50;1.90;;;;;;;7.45;61.04;97908.95;448584;1235;138224;-61
2024/04/16 17:34:18;;;;;;;2.50;2.30;;;;;;;7.01;62.03;97903.30;448871;1239;138454;-60
2024/04/16 17:44:21;;;;;;;3.20;2.30;;;;;;;6.60;63.39;97908.95;449099;1237;138276;-61
2024/04/16 17:54:24;;;;;;;4.70;2.30;;;;;;;6.25;64.76;97916.07;448870;1237;138350;-59
2024/04/16 18:04:27;;;;;;;3.60;2.30;;;;;;;5.90;65.97;97920.40;448989;1237;139181;-59
2024/04/16 18:14:34;;;;;;;4.70;2.40;;;;;;;5.62;67.24;97932.98;448897;1235;138992;-60
2024/04/16 18:24:37;;;;;;;7.70;3.20;;;;;;;5.37;68.39;97928.93;448095;1237;139088;-59
2024/04/16 18:34:41;;;;;;;7.70;4.60;;;;;;;5.17;69.53;97935.55;448920;1237;139368;-74
2024/04/16 18:44:46;;;;;;;6.70;5.50;;;;;;;4.98;70.33;97956.36;449114;1235;139249;-72
2024/04/16 18:54:50;;;;;;;6.20;5.30;;;;;;;4.88;71.66;97975.23;449382;1235;138683;-61
2024/04/16 19:04:53;;;;;;;6.20;4.80;;;;;;;4.87;72.75;97983.63;448750;1237;138901;-65
2024/04/16 19:14:56;;;;;;;5.70;4.30;;;;;;;4.74;73.82;97979.47;448700;1235;139467;-66
2024/04/16 19:25:00;;;;;;;10.50;4.40;;;;;;;4.66;75.14;97960.08;448294;1237;139444;-64
2024/04/16 19:35:05;;;;;;;5.80;3.70;;;;;;;4.60;76.42;97956.82;449589;1237;139183;-66
2024/04/16 19:45:08;;;;;;;6.30;4.30;;;;;;;4.56;77.41;97949.95;449096;1237;139511;-66
2024/04/16 19:55:13;;;;;;;5.10;4.10;;;;;;;4.59;78.06;97949.91;450362;1236;138962;-68
2024/04/16 20:05:16;;;;;;;5.40;4.20;;;;;;;4.55;78.60;97935.45;451187;1235;139532;-58
2024/04/16 20:15:21;;;;;;;4.80;4.00;;;;;;;4.43;78.87;97929.49;449685;1237;138705;-58
2024/04/16 20:25:24;;;;;;;5.70;4.10;;;;;;;4.23;79.28;97922.26;449460;1237;139536;-64
2024/04/16 20:35:27;;;;;;;5.60;4.10;;;;;;;4.00;79.63;97916.83;448641;1236;138758;-59
2024/04/16 20:45:31;;;;;;;8.60;4.50;;;;;;;3.77;80.09;97912.02;449241;1235;138644;-61
2024/04/16 20:55:34;;;;;;;5.40;4.20;;;;;;;3.59;80.74;97910.52;449467;1238;138584;-60
2024/04/16 21:05:38;;;;;;;8.90;4.90;;;;;;;3.42;81.04;97912.30;450245;1237;139131;-59
2024/04/16 21:15:51;;;;;;;7.80;5.80;;;;;;;3.27;81.77;97920.64;450571;1234;138821;-57
2024/04/16 21:25:54;;;;;;;6.20;5.00;;;;;;;3.13;82.91;97917.78;450147;1235;139690;-60
2024/04/16 21:35:57;;;;;;;7.50;5.60;;;;;;;3.01;83.25;97918.15;450107;1236;138992;-61
2024/04/16 21:46:00;;;;;;;7.40;4.60;;;;;;;2.87;83.62;97915.18;449851;1235;139758;-60
2024/04/16 21:56:05;;;;;;;9.20;6.40;;;;;;;2.75;84.07;97911.94;450432;1235;138885;-60
2024/04/16 22:06:08;;;;;;;9.10;5.80;;;;;;;2.66;84.53;97915.05;450784;1234;139068;-61
2024/04/16 22:16:11;;;;;;;6.70;5.10;;;;;;;2.56;85.34;97913.22;451386;1237;139739;-63
2024/04/16 22:26:15;;;;;;;7.00;4.60;;;;;;;2.45;85.70;97914.18;449787;1237;138657;-61
2024/04/16 22:36:18;;;;;;;5.70;4.00;;;;;;;2.34;86.33;97917.21;449586;1237;139590;-61
2024/04/16 22:46:25;;;;;;;8.80;6.10;;;;;;;2.23;86.63;97912.83;449982;1234;139248;-63
2024/04/16 22:56:29;;;;;;;6.00;5.10;;;;;;;2.12;87.14;97911.73;450088;1237;138849;-62
2024/04/16 23:06:32;;;;;;;8.90;5.20;;;;;;;1.99;87.59;97909.85;448494;1236;139342;-62
2024/04/16 23:16:35;;;;;;;8.20;6.90;;;;;;;1.84;87.69;97918.78;448697;1235;139807;-60
2024/04/16 23:26:39;;;;;;;5.20;4.60;;;;;;;1.64;88.06;97930.02;450086;1233;137632;-61
2024/04/16 23:36:42;;;;;;;8.30;5.00;;;;;;;1.50;88.78;97928.71;449778;1235;140335;-62
2024/04/16 23:46:47;;;;;;;7.10;5.50;;;;;;;1.37;89.33;97923.70;448446;1237;139333;-62
2024/04/16 23:56:51;;;;;;;7.20;5.20;;;;;;;1.21;89.85;97923.84;449070;1237;139116;-62
